Time;durP1;ratioP1;P1;durP2;ratioP2;P2;SDS_P1;SDS_P2;PMS_P1;PMS_P2;Temp;Humidity;BMP_temperature;BMP_pressure;BME280_temperature;BME280_humidity;BME280_pressure;Samples;Min_cycle;Max_cycle;Signal;HPM_P1;HPM_P2
2021/05/21 00:01:28;;;;;;;1.60;1.50;;;;;;;12.24;73.08;96224.13;5053758;28;20258;-64
2021/05/21 00:03:53;;;;;;;2.43;1.73;;;;;;;12.55;72.14;96212.22;5054466;28;20493;-63
2021/05/21 00:06:18;;;;;;;1.50;1.40;;;;;;;12.59;71.62;96208.03;5053532;28;20225;-64
2021/05/21 00:08:44;;;;;;;1.80;1.70;;;;;;;12.83;71.26;96217.34;5069629;28;20178;-64
2021/05/21 00:11:09;;;;;;;1.87;1.77;;;;;;;12.70;70.64;96211.63;5072123;28;20171;-64
2021/05/21 00:13:34;;;;;;;2.13;1.93;;;;;;;12.43;71.68;96204.38;5054517;28;20225;-63
2021/05/21 00:16:00;;;;;;;1.63;1.53;;;;;;;12.63;70.83;96206.53;5053353;28;20618;-63
2021/05/21 00:18:25;;;;;;;3.50;2.07;;;;;;;13.07;69.99;96207.41;5066546;28;20173;-58
2021/05/21 00:20:50;;;;;;;1.70;1.60;;;;;;;13.30;68.56;96199.25;5073510;28;20555;-63
2021/05/21 00:23:17;;;;;;;2.13;1.93;;;;;;;12.90;69.75;96199.50;5073411;28;20173;-57
2021/05/21 00:25:42;;;;;;;1.60;1.50;;;;;;;12.93;69.41;96203.50;5071412;28;20160;-64
2021/05/21 00:28:08;;;;;;;1.70;1.47;;;;;;;12.98;69.02;96177.19;5062600;28;20429;-57
2021/05/21 00:30:33;;;;;;;2.50;1.70;;;;;;;12.92;70.08;96188.72;5054289;28;20195;-57
2021/05/21 00:32:58;;;;;;;2.20;1.70;;;;;;;12.86;69.56;96172.06;5053442;28;20240;-64
2021/05/21 00:35:24;;;;;;;4.33;2.30;;;;;;;12.92;69.24;96167.63;5053532;28;20295;-63
2021/05/21 00:37:49;;;;;;;1.70;1.60;;;;;;;12.78;69.08;96169.03;5072880;28;20171;-57
2021/05/21 00:40:15;;;;;;;1.63;1.40;;;;;;;12.67;70.31;96162.03;5055774;28;20198;-63
2021/05/21 00:42:40;;;;;;;1.67;1.57;;;;;;;13.04;68.57;96166.53;5051993;28;20179;-57
2021/05/21 00:45:06;;;;;;;2.20;1.60;;;;;;;12.70;69.27;96172.88;5065769;28;20217;-57
2021/05/21 00:47:32;;;;;;;2.53;1.70;;;;;;;12.59;69.78;96163.22;5054352;28;20190;-63
2021/05/21 00:49:57;;;;;;;2.33;1.57;;;;;;;12.72;69.88;96154.97;5053064;28;20426;-57
2021/05/21 00:52:23;;;;;;;2.20;1.43;;;;;;;12.40;71.70;96146.09;5052900;28;20175;-57
2021/05/21 00:54:50;;;;;;;1.43;1.33;;;;;;;12.82;69.79;96144.56;5051924;28;20172;-63
2021/05/21 00:57:16;;;;;;;3.73;1.80;;;;;;;12.55;71.01;96140.25;5057935;28;20463;-64
2021/05/21 00:59:41;;;;;;;2.13;1.80;;;;;;;12.66;70.81;96144.63;5072285;28;20433;-63
2021/05/21 01:02:08;;;;;;;2.07;1.87;;;;;;;12.63;70.13;96145.13;5053173;28;20174;-63
2021/05/21 01:04:35;;;;;;;2.10;1.90;;;;;;;12.50;70.87;96140.19;5053068;28;20163;-57
2021/05/21 01:07:04;;;;;;;4.40;2.37;;;;;;;12.33;71.29;96127.03;5064771;28;20417;-57
2021/05/21 01:09:30;;;;;;;1.63;1.43;;;;;;;12.39;71.56;96118.19;5064946;28;20445;-56
2021/05/21 01:11:55;;;;;;;3.33;1.60;;;;;;;12.17;72.04;96099.66;5052925;28;20418;-64
2021/05/21 01:14:20;;;;;;;1.47;1.37;;;;;;;12.10;72.80;96116.69;5057504;28;20648;-57
2021/05/21 01:16:46;;;;;;;1.60;1.50;;;;;;;12.24;72.47;96121.38;5062250;28;20626;-63
2021/05/21 01:19:11;;;;;;;3.13;1.57;;;;;;;12.41;72.16;96110.78;5052391;28;20184;-63
2021/05/21 01:21:37;;;;;;;2.00;1.77;;;;;;;12.28;72.58;96105.91;5052951;28;20540;-63
2021/05/21 01:24:07;;;;;;;1.40;1.30;;;;;;;12.34;72.37;96116.25;5066037;28;20171;-64
2021/05/21 01:26:33;;;;;;;1.53;1.43;;;;;;;12.66;71.00;96123.53;5067982;28;20263;-64
2021/05/21 01:28:58;;;;;;;2.80;1.47;;;;;;;12.18;73.09;96113.63;5056228;28;20500;-57
2021/05/21 01:31:24;;;;;;;2.10;1.90;;;;;;;12.05;73.48;96120.03;5056800;28;20837;-63
2021/05/21 01:33:51;;;;;;;3.23;1.90;;;;;;;12.14;73.12;96113.31;5056332;28;20250;-57
2021/05/21 01:36:17;;;;;;;2.27;1.57;;;;;;;11.74;74.81;96110.06;5062201;28;20452;-63
2021/05/21 01:39:07;;;;;;;2.07;1.40;;;;;;;11.96;73.91;96113.56;5065286;28;20512;-56
2021/05/21 01:41:34;;;;;;;2.70;1.60;;;;;;;12.31;72.60;96108.84;5055197;28;20524;-56
2021/05/21 01:43:59;;;;;;;1.53;1.43;;;;;;;12.27;73.08;96091.91;5054828;28;20501;-63
2021/05/21 01:46:25;;;;;;;1.77;1.43;;;;;;;12.43;72.12;96085.81;5065242;28;20819;-63
2021/05/21 01:48:50;;;;;;;4.20;2.00;;;;;;;12.50;72.21;96088.25;5056724;28;20166;-56
2021/05/21 01:51:15;;;;;;;1.73;1.63;;;;;;;12.30;72.63;96086.16;5056051;28;20182;-64
2021/05/21 01:53:41;;;;;;;1.90;1.63;;;;;;;12.23;73.38;96082.09;5056053;28;20182;-57
2021/05/21 01:56:07;;;;;;;4.07;1.63;;;;;;;12.51;72.56;96091.69;5058332;28;20516;-58
2021/05/21 01:58:33;;;;;;;2.10;1.50;;;;;;;12.69;72.03;96083.50;5056508;28;20180;-58
2021/05/21 02:00:58;;;;;;;2.33;1.70;;;;;;;12.74;71.67;96084.34;5072813;28;20439;-64
2021/05/21 02:03:24;;;;;;;3.70;1.67;;;;;;;12.67;71.98;96078.47;5075866;28;20163;-64
2021/05/21 02:05:49;;;;;;;3.10;1.77;;;;;;;12.57;71.71;96073.09;5064821;28;20259;-63
2021/05/21 02:08:15;;;;;;;2.90;1.70;;;;;;;12.71;72.12;96073.50;5075372;28;20203;-63
2021/05/21 02:10:40;;;;;;;1.40;1.30;;;;;;;12.51;72.38;96073.25;5075806;28;20183;-63
2021/05/21 02:13:06;;;;;;;2.80;1.83;;;;;;;12.26;71.98;96066.63;5075667;28;20555;-63
2021/05/21 02:15:31;;;;;;;2.23;1.50;;;;;;;12.03;72.35;96063.41;5074182;28;20206;-63
2021/05/21 02:17:56;;;;;;;3.23;1.40;;;;;;;12.03;73.32;96064.19;5059278;28;20172;-64
2021/05/21 02:20:22;;;;;;;1.57;1.47;;;;;;;11.81;73.73;96052.78;5055406;28;20245;-64
2021/05/21 02:22:47;;;;;;;1.57;1.40;;;;;;;11.93;72.92;96053.50;5055685;28;20225;-57
2021/05/21 02:25:14;;;;;;;2.93;1.30;;;;;;;11.62;74.79;96045.34;5055398;28;20224;-58
2021/05/21 02:27:40;;;;;;;1.10;1.00;;;;;;;11.72;74.32;96040.28;5067598;28;20250;-58
2021/05/21 02:30:09;;;;;;;1.73;1.40;;;;;;;11.76;73.83;96039.56;5075444;28;20515;-63
2021/05/21 02:32:34;;;;;;;1.80;1.43;;;;;;;12.05;73.02;96032.31;5066701;28;20182;-57
2021/05/21 02:35:00;;;;;;;1.70;1.60;;;;;;;11.83;73.25;96036.78;5055108;28;20481;-56
2021/05/21 02:37:25;;;;;;;3.73;1.50;;;;;;;12.26;72.02;96035.03;5066682;28;20268;-57
2021/05/21 02:39:51;;;;;;;1.53;1.23;;;;;;;12.20;71.75;96025.44;5075160;28;20197;-57
2021/05/21 02:42:16;;;;;;;5.07;1.40;;;;;;;11.99;72.42;96023.56;5075252;28;20231;-63
2021/05/21 02:44:41;;;;;;;1.67;1.57;;;;;;;12.29;72.22;96021.34;5073183;28;20183;-63
2021/05/21 02:47:07;;;;;;;8.30;2.97;;;;;;;12.38;71.11;96011.19;5064984;28;20179;-57
2021/05/21 02:49:34;;;;;;;1.33;1.23;;;;;;;12.36;71.31;96015.88;5054972;28;20191;-63
2021/05/21 02:51:59;;;;;;;1.63;1.23;;;;;;;12.19;71.85;96010.66;5054847;28;20166;-57
2021/05/21 02:54:25;;;;;;;1.43;1.33;;;;;;;12.38;71.00;96014.63;5054996;28;20488;-63
2021/05/21 02:56:50;;;;;;;2.07;1.43;;;;;;;12.13;71.91;96010.84;5061319;28;20710;-59
2021/05/21 02:59:15;;;;;;;1.67;1.50;;;;;;;12.02;72.25;96012.56;5072554;28;20202;-63
2021/05/21 03:01:41;;;;;;;4.07;1.33;;;;;;;11.95;72.62;96009.31;5074836;28;20563;-56
2021/05/21 03:04:06;;;;;;;1.40;1.30;;;;;;;11.98;72.36;96011.44;5074742;28;20177;-63
2021/05/21 03:06:32;;;;;;;2.43;1.50;;;;;;;11.88;72.63;96010.50;5070519;28;20168;-57
2021/05/21 03:08:57;;;;;;;2.47;1.53;;;;;;;11.78;73.02;96005.91;5055124;28;20688;-63
2021/05/21 03:11:22;;;;;;;1.77;1.23;;;;;;;11.68;73.91;95994.44;5054666;28;20663;-57
2021/05/21 03:13:48;;;;;;;2.23;1.30;;;;;;;11.68;73.76;96002.31;5054464;28;20221;-63
2021/05/21 03:16:13;;;;;;;3.80;1.53;;;;;;;11.68;74.19;95986.53;5055344;28;20249;-62
2021/05/21 03:18:38;;;;;;;1.63;1.20;;;;;;;11.51;74.22;95986.50;5073996;28;20163;-57
2021/05/21 03:21:04;;;;;;;2.23;1.60;;;;;;;11.38;74.70;95974.47;5072249;28;20517;-57
2021/05/21 03:23:30;;;;;;;2.00;1.10;;;;;;;11.38;75.08;95971.06;5074415;28;20648;-64
2021/05/21 03:25:56;;;;;;;4.03;1.50;;;;;;;11.43;74.58;95964.03;5072361;28;20224;-57
2021/05/21 03:28:21;;;;;;;8.13;1.30;;;;;;;11.53;74.21;95960.75;5055605;28;20665;-63
2021/05/21 03:30:47;;;;;;;1.70;1.33;;;;;;;11.29;75.56;95952.25;5053980;28;20685;-63
2021/05/21 03:33:12;;;;;;;1.23;0.90;;;;;;;11.40;74.56;95961.09;5054182;28;20164;-63
2021/05/21 03:35:38;;;;;;;1.73;1.17;;;;;;;11.46;74.21;95956.69;5053987;28;20489;-63
2021/05/21 03:38:06;;;;;;;1.50;1.40;;;;;;;11.31;75.02;95959.91;5055134;28;20174;-62
2021/05/21 03:40:33;;;;;;;2.60;1.10;;;;;;;11.77;73.72;95956.13;5053762;28;20449;-63
2021/05/21 03:42:59;;;;;;;1.20;1.10;;;;;;;11.39;74.70;95959.50;5054405;28;20895;-63
2021/05/21 03:45:24;;;;;;;1.47;1.37;;;;;;;11.34;75.16;95960.22;5053940;28;20406;-57
2021/05/21 03:47:50;;;;;;;1.27;1.10;;;;;;;11.63;74.33;95960.13;5059415;28;20179;-56
2021/05/21 03:50:18;;;;;;;1.73;1.23;;;;;;;11.67;73.71;95958.63;5053924;28;20191;-57
2021/05/21 03:52:44;;;;;;;2.87;1.50;;;;;;;11.75;73.02;95955.56;5054741;28;20210;-63
2021/05/21 03:55:10;;;;;;;1.80;1.03;;;;;;;11.74;72.85;95957.41;5053753;28;20827;-64
2021/05/21 03:57:37;;;;;;;1.17;1.00;;;;;;;11.34;74.62;95959.44;5063006;28;20210;-63
2021/05/21 04:00:06;;;;;;;2.23;1.10;;;;;;;11.43;74.62;95958.78;5073639;28;20421;-57
2021/05/21 04:02:32;;;;;;;1.43;1.30;;;;;;;11.64;73.73;95953.81;5073662;28;20895;-57
2021/05/21 04:04:58;;;;;;;4.43;1.50;;;;;;;11.45;73.69;95952.50;5071892;28;20437;-56
2021/05/21 04:07:23;;;;;;;1.80;1.23;;;;;;;11.46;74.18;95948.81;5064868;28;20171;-57
2021/05/21 04:09:48;;;;;;;1.63;1.30;;;;;;;11.32;74.13;95953.63;5065096;28;20206;-63
2021/05/21 04:12:14;;;;;;;1.30;1.20;;;;;;;11.32;74.09;95943.88;5073531;28;20694;-57
2021/05/21 04:14:39;;;;;;;1.47;1.00;;;;;;;11.76;72.79;95944.81;5073760;28;20274;-63
2021/05/21 04:17:04;;;;;;;5.03;1.77;;;;;;;11.96;71.60;95937.16;5067598;28;20198;-63
2021/05/21 04:19:30;;;;;;;1.37;1.23;;;;;;;11.96;70.23;95928.47;5059481;28;20195;-57
2021/05/21 04:21:55;;;;;;;3.87;1.17;;;;;;;11.77;71.78;95927.97;5073577;28;20253;-56
2021/05/21 04:24:20;;;;;;;2.30;1.30;;;;;;;11.86;70.46;95926.53;5073632;28;20163;-63
2021/05/21 04:26:46;;;;;;;2.10;1.10;;;;;;;12.03;70.14;95924.63;5067763;28;20231;-63
2021/05/21 04:29:11;;;;;;;1.50;1.17;;;;;;;12.25;68.79;95924.59;5072882;28;20269;-57
2021/05/21 04:31:37;;;;;;;1.03;0.87;;;;;;;12.23;68.62;95922.22;5073375;28;20223;-63
2021/05/21 04:34:02;;;;;;;1.10;1.00;;;;;;;12.27;67.91;95927.78;5069526;28;20163;-64
2021/05/21 04:36:28;;;;;;;2.03;1.23;;;;;;;12.19;68.49;95926.38;5053241;28;20515;-63
2021/05/21 04:38:53;;;;;;;1.40;1.00;;;;;;;12.41;68.30;95921.09;5052722;28;20163;-63
2021/05/21 04:41:18;;;;;;;1.20;1.10;;;;;;;12.41;67.84;95921.09;5052105;28;20178;-57
2021/05/21 04:43:45;;;;;;;2.90;1.60;;;;;;;12.41;67.78;95927.16;5053258;28;20167;-62
2021/05/21 04:46:11;;;;;;;2.23;1.03;;;;;;;12.82;66.50;95917.03;5051922;28;20218;-57
2021/05/21 04:48:36;;;;;;;2.00;1.07;;;;;;;12.86;66.61;95918.94;5052611;28;20406;-57
2021/05/21 04:51:02;;;;;;;0.80;0.80;;;;;;;12.83;67.01;95916.78;5052161;28;20174;-57
2021/05/21 04:53:27;;;;;;;1.50;1.20;;;;;;;12.66;67.50;95917.94;5053981;28;20206;-64
2021/05/21 04:55:53;;;;;;;2.50;0.90;;;;;;;12.36;67.95;95913.13;5065502;28;20940;-63
2021/05/21 04:58:18;;;;;;;1.20;0.97;;;;;;;12.70;67.01;95908.50;5056978;28;20540;-57
2021/05/21 05:00:44;;;;;;;1.30;1.00;;;;;;;12.83;66.79;95908.06;5057001;28;20220;-57
2021/05/21 05:03:17;;;;;;;1.33;1.23;;;;;;;12.91;65.77;95910.25;5065086;28;20253;-64
2021/05/21 05:05:46;;;;;;;1.57;1.10;;;;;;;12.72;66.52;95904.53;5075713;28;20416;-63
2021/05/21 05:08:16;;;;;;;1.20;1.10;;;;;;;12.93;65.96;95894.97;5076590;28;20413;-57
2021/05/21 05:10:43;;;;;;;1.80;1.07;;;;;;;13.21;64.95;95889.41;5076726;28;20421;-57
2021/05/21 05:13:09;;;;;;;1.23;1.03;;;;;;;12.97;65.81;95888.16;5067098;28;20448;-57
2021/05/21 05:15:35;;;;;;;1.43;1.00;;;;;;;13.03;65.36;95885.31;5066979;28;20907;-64
2021/05/21 05:18:01;;;;;;;2.63;1.10;;;;;;;13.37;64.56;95886.63;5076336;28;20655;-57
2021/05/21 05:20:27;;;;;;;3.63;1.13;;;;;;;13.24;63.69;95879.13;5067730;28;20441;-64
2021/05/21 05:22:53;;;;;;;1.17;0.70;;;;;;;13.42;63.46;95880.59;5060438;28;20190;-57
2021/05/21 05:25:19;;;;;;;2.00;1.03;;;;;;;13.18;64.24;95872.25;5076610;28;20171;-57
2021/05/21 05:27:44;;;;;;;1.37;1.00;;;;;;;13.23;64.75;95868.84;5074099;28;20428;-57
2021/05/21 05:30:10;;;;;;;1.00;0.90;;;;;;;13.47;63.67;95867.41;5076627;28;20248;-56
2021/05/21 05:32:36;;;;;;;0.80;0.80;;;;;;;13.41;64.34;95873.72;5069460;28;20175;-57
2021/05/21 05:35:01;;;;;;;1.07;0.97;;;;;;;13.27;63.00;95865.47;5056553;28;20414;-57
2021/05/21 05:37:27;;;;;;;1.50;1.17;;;;;;;13.24;64.36;95859.91;5056011;28;20187;-58
2021/05/21 05:39:52;;;;;;;1.23;1.20;;;;;;;12.95;64.71;95866.50;5056243;28;20219;-57
2021/05/21 05:42:18;;;;;;;0.93;0.80;;;;;;;13.19;65.41;95865.13;5058619;28;20171;-64
2021/05/21 05:44:43;;;;;;;1.30;1.20;;;;;;;13.60;63.79;95859.03;5076412;28;20574;-64
2021/05/21 05:47:08;;;;;;;1.10;1.10;;;;;;;13.42;62.92;95854.19;5069878;28;20172;-57
2021/05/21 05:49:34;;;;;;;1.43;0.83;;;;;;;13.59;62.71;95854.03;5056099;28;20187;-57
2021/05/21 05:51:59;;;;;;;2.60;1.10;;;;;;;13.96;61.75;95870.56;5057006;28;20206;-64
2021/05/21 05:54:26;;;;;;;2.37;2.23;;;;;;;13.78;61.86;95866.53;5066644;28;20175;-63
2021/05/21 05:56:52;;;;;;;0.77;0.77;;;;;;;14.22;63.26;95861.66;5055825;28;20238;-58
2021/05/21 05:59:18;;;;;;;3.50;1.00;;;;;;;14.04;61.87;95852.34;5055688;28;20832;-58
2021/05/21 06:01:43;;;;;;;1.43;0.90;;;;;;;13.59;63.50;95854.81;5054873;28;20422;-58
2021/05/21 06:04:09;;;;;;;2.80;1.10;;;;;;;13.65;62.95;95856.44;5054662;28;20211;-64
2021/05/21 06:06:34;;;;;;;1.53;1.00;;;;;;;13.68;63.26;95847.22;5056751;28;20175;-58
2021/05/21 06:09:00;;;;;;;1.77;1.00;;;;;;;14.01;62.51;95852.06;5052733;28;20219;-58
2021/05/21 06:11:25;;;;;;;0.90;0.90;;;;;;;14.18;60.50;95852.66;5058334;28;20172;-64
2021/05/21 06:13:51;;;;;;;1.53;1.20;;;;;;;14.15;60.66;95853.97;5056000;28;20167;-64
2021/05/21 06:16:17;;;;;;;0.93;0.77;;;;;;;13.83;61.72;95855.19;5056329;28;20187;-64
2021/05/21 06:18:43;;;;;;;4.93;1.20;;;;;;;13.77;61.68;95851.72;5055056;28;20745;-58
2021/05/21 06:21:09;;;;;;;0.83;0.83;;;;;;;13.86;62.01;95844.88;5058663;28;20175;-57
2021/05/21 06:23:35;;;;;;;0.97;0.90;;;;;;;14.14;62.03;95843.66;5054169;28;20418;-65
2021/05/21 06:28:45;;;;;;;2.00;1.00;;;;;;;13.86;60.71;95839.59;5054956;28;20455;-64
2021/05/21 06:31:11;;;;;;;0.87;0.77;;;;;;;14.45;60.20;95837.44;5059861;28;20421;-57
2021/05/21 06:33:37;;;;;;;1.73;1.00;;;;;;;14.19;60.83;95833.91;5061082;28;20202;-59
2021/05/21 06:36:03;;;;;;;1.10;1.00;;;;;;;14.53;59.69;95828.19;5074670;28;20193;-64
2021/05/21 06:38:28;;;;;;;1.93;1.07;;;;;;;13.98;60.69;95831.47;5074771;28;20409;-57
2021/05/21 06:40:54;;;;;;;1.20;1.10;;;;;;;14.28;60.33;95827.09;5072786;28;20428;-58
2021/05/21 06:43:20;;;;;;;1.57;1.20;;;;;;;14.52;59.25;95826.59;5055178;28;20262;-64
2021/05/21 06:45:48;;;;;;;1.10;1.00;;;;;;;14.26;60.12;95823.91;5055180;28;20399;-57
2021/05/21 06:48:13;;;;;;;0.90;0.80;;;;;;;14.56;61.04;95817.88;5062744;28;20513;-58
2021/05/21 06:50:39;;;;;;;1.20;1.10;;;;;;;14.44;60.34;95810.19;5074591;28;20448;-63
2021/05/21 06:53:05;;;;;;;1.03;0.90;;;;;;;14.26;60.99;95815.97;5054847;28;20274;-64
2021/05/21 06:55:30;;;;;;;2.53;0.97;;;;;;;14.70;59.87;95807.56;5053671;28;20402;-57
2021/05/21 06:57:56;;;;;;;0.80;0.80;;;;;;;14.76;58.98;95796.72;5054364;28;20231;-58
2021/05/21 07:00:21;;;;;;;1.17;0.77;;;;;;;14.81;59.79;95803.84;5055500;28;20310;-64
2021/05/21 07:02:47;;;;;;;0.97;0.90;;;;;;;14.95;60.35;95795.09;5071613;28;20174;-58
2021/05/21 07:05:13;;;;;;;3.00;1.30;;;;;;;14.83;59.62;95796.44;5074621;28;20205;-63
2021/05/21 07:07:39;;;;;;;1.30;1.20;;;;;;;14.48;61.16;95796.44;5072485;28;20169;-64
2021/05/21 07:10:07;;;;;;;1.83;1.00;;;;;;;14.61;60.65;95798.56;5054519;28;20457;-58
2021/05/21 07:12:33;;;;;;;1.33;1.17;;;;;;;15.01;60.01;95803.84;5069312;28;20421;-57
2021/05/21 07:14:58;;;;;;;1.20;0.90;;;;;;;14.97;59.72;95794.84;5068215;28;20422;-64
2021/05/21 07:17:23;;;;;;;1.10;0.80;;;;;;;15.16;58.66;95793.22;5054116;28;20198;-58
2021/05/21 07:19:49;;;;;;;0.93;0.93;;;;;;;15.02;59.34;95786.91;5054041;28;20546;-63
2021/05/21 07:22:14;;;;;;;1.43;1.03;;;;;;;14.95;58.77;95799.59;5066804;28;20179;-58
2021/05/21 07:24:39;;;;;;;1.40;1.23;;;;;;;14.66;59.35;95790.63;5074525;28;20178;-57
2021/05/21 07:27:05;;;;;;;1.17;1.00;;;;;;;14.34;59.50;95809.38;5072386;28;20167;-63
2021/05/21 07:29:31;;;;;;;0.97;0.80;;;;;;;14.70;59.97;95802.25;5060686;28;20237;-63
2021/05/21 07:31:56;;;;;;;1.10;0.90;;;;;;;14.56;60.08;95791.44;5073177;28;20166;-63
2021/05/21 07:34:22;;;;;;;2.10;1.03;;;;;;;14.63;59.77;95791.97;5062101;28;20179;-63
2021/05/21 07:36:47;;;;;;;1.57;1.13;;;;;;;14.96;59.71;95782.69;5071474;28;20734;-57
2021/05/21 07:39:14;;;;;;;4.30;0.80;;;;;;;15.18;58.63;95780.53;5069019;28;20196;-63
2021/05/21 07:41:40;;;;;;;1.87;0.80;;;;;;;15.24;58.61;95782.09;5057041;28;20174;-63
2021/05/21 07:44:07;;;;;;;1.00;1.00;;;;;;;14.86;58.85;95788.78;5057158;28;20418;-62
2021/05/21 07:46:33;;;;;;;0.87;0.87;;;;;;;14.53;60.33;95786.66;5074002;28;20171;-63
2021/05/21 07:48:59;;;;;;;1.93;1.17;;;;;;;14.31;60.22;95800.13;5069366;28;20433;-58
2021/05/21 07:51:24;;;;;;;2.43;1.17;;;;;;;14.50;59.76;95800.41;5056982;28;20428;-62
2021/05/21 07:53:50;;;;;;;2.03;0.90;;;;;;;14.55;59.65;95794.34;5071064;28;20289;-63
2021/05/21 07:56:15;;;;;;;1.07;0.97;;;;;;;14.34;59.75;95780.31;5073449;28;20199;-57
2021/05/21 07:58:41;;;;;;;3.43;0.90;;;;;;;14.55;59.85;95797.75;5071986;28;20199;-63
2021/05/21 08:01:07;;;;;;;1.00;0.90;;;;;;;14.51;59.70;95783.50;5072468;28;20424;-63
2021/05/21 08:03:33;;;;;;;3.83;0.90;;;;;;;14.60;59.61;95787.22;5062217;28;20550;-58
2021/05/21 08:06:00;;;;;;;2.57;1.10;;;;;;;14.84;58.57;95780.31;5063085;28;20167;-58
2021/05/21 08:08:26;;;;;;;1.70;1.10;;;;;;;14.83;58.88;95770.00;5070754;28;20548;-61
2021/05/21 08:10:53;;;;;;;1.33;1.17;;;;;;;15.15;57.81;95759.88;5069217;28;20429;-57
2021/05/21 08:13:19;;;;;;;2.03;0.90;;;;;;;15.00;58.81;95754.63;5069595;28;20178;-57
2021/05/21 08:15:45;;;;;;;2.73;0.90;;;;;;;15.27;57.63;95757.75;5073210;28;20419;-58
2021/05/21 08:18:11;;;;;;;2.33;0.80;;;;;;;15.14;58.12;95751.16;5073122;28;20405;-64
2021/05/21 08:20:38;;;;;;;2.40;0.87;;;;;;;14.90;58.91;95747.50;5073222;28;20194;-63
2021/05/21 08:23:03;;;;;;;1.77;1.20;;;;;;;14.91;59.00;95740.38;5056955;28;20425;-62
2021/05/21 08:25:29;;;;;;;2.10;1.10;;;;;;;15.23;57.76;95730.22;5068393;28;20904;-56
2021/05/21 08:27:54;;;;;;;1.67;0.90;;;;;;;15.17;58.18;95744.53;5073117;28;20163;-57
2021/05/21 08:30:21;;;;;;;0.90;0.50;;;;;;;15.16;58.17;95732.38;5062857;28;20195;-57
2021/05/21 08:32:49;;;;;;;1.03;0.90;;;;;;;15.01;58.61;95725.25;5065547;28;20488;-61
2021/05/21 08:35:15;;;;;;;3.83;0.90;;;;;;;14.91;59.64;95730.56;5073422;28;20405;-61
2021/05/21 08:37:41;;;;;;;3.00;1.00;;;;;;;14.99;60.54;95724.72;5071026;28;20465;-58
2021/05/21 08:40:08;;;;;;;1.13;1.00;;;;;;;15.04;60.27;95726.56;5066122;28;20801;-65
2021/05/21 08:42:38;;;;;;;2.27;1.00;;;;;;;14.95;60.68;95707.00;5064340;28;20198;-61
2021/05/21 08:45:05;;;;;;;1.03;0.97;;;;;;;14.84;61.16;95737.22;5067093;28;20426;-55
2021/05/21 08:47:34;;;;;;;5.20;1.27;;;;;;;14.82;60.72;95712.88;5052762;28;20518;-56
2021/05/21 08:50:07;;;;;;;4.07;2.17;;;;;;;14.76;60.57;95706.00;5055929;28;20801;-58
2021/05/21 08:52:33;;;;;;;1.40;1.30;;;;;;;14.76;60.43;95714.75;5063466;28;20440;-57
2021/05/21 08:54:59;;;;;;;1.30;1.20;;;;;;;14.80;60.19;95712.34;5053367;28;20453;-56
2021/05/21 08:57:29;;;;;;;3.90;1.23;;;;;;;14.86;59.22;95716.53;5063220;28;20628;-59
2021/05/21 08:59:54;;;;;;;1.10;1.00;;;;;;;14.81;59.03;95722.66;5053444;28;20707;-57
2021/05/21 09:02:27;;;;;;;1.00;1.00;;;;;;;14.85;58.75;95731.66;5057088;28;20421;-59
2021/05/21 09:05:00;;;;;;;2.13;1.20;;;;;;;15.04;58.74;95755.66;5052643;28;20203;-62
2021/05/21 09:07:31;;;;;;;3.33;1.00;;;;;;;15.00;58.04;95752.00;5054743;28;21154;-61
2021/05/21 09:09:58;;;;;;;1.13;1.00;;;;;;;14.93;58.67;95746.97;5049329;28;20453;-63
2021/05/21 09:12:35;;;;;;;2.40;1.10;;;;;;;15.03;58.85;95749.59;5057152;28;20426;-62
2021/05/21 09:15:08;;;;;;;4.47;1.20;;;;;;;15.22;58.97;95763.81;5055519;28;20416;-62
2021/05/21 09:17:34;;;;;;;1.57;1.33;;;;;;;15.24;59.22;95763.56;5068944;28;20452;-62
2021/05/21 09:20:01;;;;;;;1.87;1.03;;;;;;;15.14;59.27;95771.53;5054644;28;20445;-61
2021/05/21 09:22:27;;;;;;;1.47;1.00;;;;;;;14.97;59.64;95773.66;5063778;28;20539;-61
2021/05/21 09:24:53;;;;;;;1.10;1.00;;;;;;;14.80;60.58;95770.53;5058613;28;20426;-59
2021/05/21 09:27:20;;;;;;;1.37;1.10;;;;;;;14.96;60.67;95774.75;5054831;28;20175;-59
2021/05/21 09:29:56;;;;;;;1.73;1.47;;;;;;;14.94;60.61;95775.03;5061837;28;20799;-60
2021/05/21 09:32:30;;;;;;;2.23;1.13;;;;;;;14.86;60.54;95777.38;5067897;28;20429;-60
2021/05/21 09:35:01;;;;;;;2.40;1.10;;;;;;;14.82;59.74;95779.00;5060129;28;20827;-59
2021/05/21 09:37:27;;;;;;;1.53;1.00;;;;;;;14.90;60.64;95768.66;5052681;28;20460;-60
2021/05/21 09:40:06;;;;;;;1.53;1.43;;;;;;;14.76;60.55;95772.13;5064563;28;20812;-61
2021/05/21 09:42:48;;;;;;;1.20;1.10;;;;;;;14.69;60.96;95753.09;5050315;28;20657;-61
2021/05/21 09:45:34;;;;;;;3.60;1.20;;;;;;;14.71;61.67;95769.50;5066188;28;20474;-61
2021/05/21 09:48:01;;;;;;;2.00;1.03;;;;;;;14.75;61.28;95752.81;5052269;28;20430;-64
2021/05/21 09:50:43;;;;;;;1.27;0.90;;;;;;;14.52;61.84;95760.50;5052029;28;20441;-65
2021/05/21 09:53:22;;;;;;;1.20;1.10;;;;;;;14.49;62.52;95759.19;5052476;28;20426;-58
2021/05/21 09:56:00;;;;;;;0.83;0.83;;;;;;;14.57;62.71;95771.84;5055334;28;20470;-63
2021/05/21 09:58:33;;;;;;;1.77;1.10;;;;;;;14.57;62.53;95771.84;5070597;28;20428;-60
2021/05/21 10:01:17;;;;;;;4.57;1.30;;;;;;;14.71;62.41;95782.72;5053822;28;20457;-60
2021/05/21 10:03:55;;;;;;;2.00;1.00;;;;;;;14.76;62.56;95783.50;5052006;28;20900;-63
2021/05/21 10:06:25;;;;;;;2.50;0.93;;;;;;;14.55;62.68;95795.13;5053550;28;20422;-67
2021/05/21 10:08:55;;;;;;;2.07;1.10;;;;;;;14.47;63.13;95816.81;5051901;28;20571;-66
2021/05/21 10:11:20;;;;;;;2.03;1.37;;;;;;;14.49;63.12;95803.31;5052264;28;20422;-62
2021/05/21 10:13:46;;;;;;;1.00;1.00;;;;;;;14.63;62.88;95799.91;5052668;28;20425;-65
2021/05/21 10:16:17;;;;;;;0.80;0.80;;;;;;;14.52;63.73;95792.22;5057395;28;20199;-63
2021/05/21 10:18:45;;;;;;;1.00;1.00;;;;;;;14.63;63.61;95804.38;5071787;28;20253;-67
2021/05/21 10:21:10;;;;;;;0.90;0.90;;;;;;;14.43;64.27;95807.81;5072208;28;20982;-64
2021/05/21 10:23:44;;;;;;;1.00;1.00;;;;;;;14.57;64.05;95797.50;5071996;28;20471;-62
2021/05/21 10:26:15;;;;;;;2.10;1.23;;;;;;;14.65;64.49;95794.34;5066846;28;20453;-66
2021/05/21 10:28:44;;;;;;;1.40;1.30;;;;;;;14.56;64.98;95804.66;5052419;28;20483;-63
2021/05/21 10:31:12;;;;;;;1.43;0.90;;;;;;;14.47;64.92;95800.94;5051723;28;20421;-60
2021/05/21 10:33:39;;;;;;;1.47;1.00;;;;;;;14.53;65.67;95802.53;5051488;28;20529;-64
2021/05/21 10:36:16;;;;;;;1.23;0.63;;;;;;;14.55;65.87;95810.97;5064691;28;20570;-64
2021/05/21 10:39:05;;;;;;;0.70;0.70;;;;;;;14.54;65.71;95804.13;5059396;28;20789;-59
2021/05/21 10:41:31;;;;;;;1.20;0.70;;;;;;;14.66;65.70;95807.28;5054711;28;20414;-59
2021/05/21 10:43:58;;;;;;;0.73;0.73;;;;;;;14.59;66.34;95805.97;5056068;28;20422;-64
2021/05/21 10:46:31;;;;;;;0.70;0.70;;;;;;;14.57;67.15;95806.22;5065637;28;20316;-64
2021/05/21 10:48:59;;;;;;;1.13;0.90;;;;;;;14.92;65.55;95797.50;5074688;28;20949;-59
2021/05/21 10:51:27;;;;;;;0.80;0.80;;;;;;;14.64;67.00;95805.97;5075136;28;20488;-59
2021/05/21 10:54:23;;;;;;;0.83;0.77;;;;;;;15.01;66.66;95814.41;5068641;28;20436;-64
2021/05/21 10:56:48;;;;;;;0.80;0.80;;;;;;;15.04;65.95;95814.69;5069028;28;20476;-66
2021/05/21 10:59:14;;;;;;;2.30;0.80;;;;;;;15.05;65.42;95802.25;5074399;28;20919;-65
2021/05/21 11:01:46;;;;;;;0.80;0.80;;;;;;;15.08;65.98;95818.38;5060301;28;20179;-65
2021/05/21 11:04:13;;;;;;;0.87;0.87;;;;;;;15.19;65.55;95821.81;5054860;28;20183;-65
2021/05/21 11:06:52;;;;;;;1.23;1.10;;;;;;;15.06;65.66;95833.72;5064382;28;20786;-59
2021/05/21 11:09:26;;;;;;;2.07;0.93;;;;;;;15.17;65.88;95837.16;5054135;28;20796;-59
2021/05/21 11:12:04;;;;;;;3.07;1.00;;;;;;;15.20;66.01;95837.41;5055074;28;20410;-63
2021/05/21 11:14:31;;;;;;;1.67;0.90;;;;;;;15.20;65.07;95826.81;5074692;28;20747;-65
2021/05/21 11:16:57;;;;;;;0.90;0.90;;;;;;;15.28;64.65;95830.78;5064765;28;20910;-64
2021/05/21 11:19:28;;;;;;;0.70;0.70;;;;;;;15.34;64.20;95821.78;5074434;28;20524;-59
2021/05/21 11:22:17;;;;;;;1.00;1.00;;;;;;;15.02;65.59;95831.91;5074356;28;20393;-64
2021/05/21 11:24:45;;;;;;;1.90;1.30;;;;;;;15.22;64.75;95814.13;5074535;28;20408;-59
2021/05/21 11:27:12;;;;;;;1.00;1.00;;;;;;;15.26;65.24;95820.47;5056875;28;20843;-59
2021/05/21 11:29:46;;;;;;;1.20;0.90;;;;;;;15.27;64.12;95826.56;5054139;28;20441;-59
2021/05/21 11:32:12;;;;;;;1.37;1.00;;;;;;;15.48;64.89;95825.47;5052933;28;20926;-59
2021/05/21 11:34:38;;;;;;;1.10;1.00;;;;;;;15.53;65.21;95832.63;5054294;28;20418;-59
2021/05/21 11:37:05;;;;;;;1.90;1.07;;;;;;;15.80;65.16;95835.72;5069137;28;20257;-59